Time;durP1;ratioP1;P1;durP2;ratioP2;P2;SDS_P1;SDS_P2;PMS_P1;PMS_P2;Temp;Humidity;BMP_temperature;BMP_pressure;BME280_temperature;BME280_humidity;BME280_pressure;Samples;Min_cycle;Max_cycle;Signal;HPM_P1;HPM_P2
2022/12/28 00:01:11;;;;;;;18.95;4.60;;;;;;;;;;5031574;28;20393;-66
2022/12/28 00:03:37;;;;;;;17.45;3.40;;;;;;;;;;5031847;28;20064;-66
2022/12/28 00:06:04;;;;;;;14.63;3.70;;;;;;;;;;5031391;28;20474;-66
2022/12/28 00:08:30;;;;;;;17.88;3.95;;;;;;;;;;5013865;28;20099;-66
2022/12/28 00:11:01;;;;;;;20.40;3.85;;;;;;;;;;5019489;28;20033;-66
2022/12/28 00:13:29;;;;;;;15.20;2.92;;;;;;;;;;5031370;28;20083;-66
2022/12/28 00:15:55;;;;;;;11.40;2.60;;;;;;;;;;5031736;28;20501;-66
2022/12/28 00:18:21;;;;;;;9.05;2.10;;;;;;;;;;5031131;28;20577;-66
2022/12/28 00:20:57;;;;;;;16.52;3.15;;;;;;;;;;5031832;28;20017;-66
2022/12/28 00:23:24;;;;;;;11.93;2.33;;;;;;;;;;5031633;28;20021;-66
2022/12/28 00:25:50;;;;;;;15.48;2.58;;;;;;;;;;5031678;28;20022;-66
2022/12/28 00:28:16;;;;;;;14.35;3.13;;;;;;;;;;5030956;28;20028;-66
2022/12/28 00:30:42;;;;;;;18.65;2.88;;;;;;;;;;5030501;28;20024;-65
2022/12/28 00:33:08;;;;;;;17.08;2.90;;;;;;;;;;5031268;28;20393;-64
2022/12/28 00:35:34;;;;;;;11.80;2.63;;;;;;;;;;5031595;28;20047;-64
2022/12/28 00:38:00;;;;;;;16.52;2.80;;;;;;;;;;5031443;28;20537;-64
2022/12/28 00:40:27;;;;;;;17.63;2.80;;;;;;;;;;5030815;28;20029;-64
2022/12/28 00:42:53;;;;;;;24.77;3.75;;;;;;;;;;5031344;28;20022;-64
2022/12/28 00:45:19;;;;;;;18.42;2.83;;;;;;;;;;5031296;28;20025;-64
2022/12/28 00:47:45;;;;;;;19.08;3.05;;;;;;;;;;5031769;28;20026;-64
2022/12/28 00:50:11;;;;;;;15.27;3.03;;;;;;;;;;5034812;28;20120;-64
2022/12/28 00:52:37;;;;;;;20.25;3.58;;;;;;;;;;5034409;28;20095;-64
2022/12/28 00:55:03;;;;;;;12.10;2.70;;;;;;;;;;5033984;28;20036;-64
2022/12/28 00:57:30;;;;;;;24.35;3.40;;;;;;;;;;5033959;28;20029;-64
2022/12/28 00:59:56;;;;;;;20.50;3.53;;;;;;;;;;5034814;28;20029;-64
2022/12/28 01:02:23;;;;;;;15.57;2.65;;;;;;;;;;5034186;28;20025;-64
2022/12/28 01:04:49;;;;;;;16.92;3.28;;;;;;;;;;5034818;28;20382;-64
2022/12/28 01:07:15;;;;;;;16.00;3.88;;;;;;;;;;5035517;28;20099;-64
2022/12/28 01:09:41;;;;;;;26.70;3.30;;;;;;;;;;5034642;28;20022;-64
2022/12/28 01:12:07;;;;;;;22.38;3.25;;;;;;;;;;5034382;28;20033;-64
2022/12/28 01:14:33;;;;;;;23.88;3.40;;;;;;;;;;5034162;28;20429;-64
2022/12/28 01:17:00;;;;;;;23.85;4.05;;;;;;;;;;5033283;28;20029;-64
2022/12/28 01:19:27;;;;;;;23.48;3.25;;;;;;;;;;5033118;28;20029;-64
2022/12/28 01:21:53;;;;;;;24.23;3.90;;;;;;;;;;5033247;28;20125;-64
2022/12/28 01:24:19;;;;;;;20.27;3.95;;;;;;;;;;5033855;28;20028;-64
2022/12/28 01:26:46;;;;;;;22.02;2.95;;;;;;;;;;5032888;28;20030;-64
2022/12/28 01:29:12;;;;;;;23.58;3.92;;;;;;;;;;5034362;28;20033;-64
2022/12/28 01:31:38;;;;;;;23.92;3.55;;;;;;;;;;5034157;28;20503;-64
2022/12/28 01:34:04;;;;;;;25.85;3.55;;;;;;;;;;5032808;28;20680;-64
2022/12/28 01:36:31;;;;;;;18.50;2.92;;;;;;;;;;5033747;28;20409;-64
2022/12/28 01:38:59;;;;;;;29.05;4.88;;;;;;;;;;5033977;28;20029;-64
2022/12/28 01:41:26;;;;;;;20.27;3.40;;;;;;;;;;5033838;28;20033;-64
2022/12/28 01:43:52;;;;;;;29.42;5.32;;;;;;;;;;5032706;28;20017;-64
2022/12/28 01:46:21;;;;;;;25.33;3.63;;;;;;;;;;5033831;28;20033;-64
2022/12/28 01:48:52;;;;;;;24.92;3.60;;;;;;;;;;5018091;28;20029;-64
2022/12/28 01:51:19;;;;;;;26.50;3.67;;;;;;;;;;5032471;28;20130;-64
2022/12/28 01:53:46;;;;;;;26.73;3.53;;;;;;;;;;5033538;28;20025;-64
2022/12/28 01:56:13;;;;;;;18.58;3.22;;;;;;;;;;5033907;28;20087;-64
2022/12/28 01:58:39;;;;;;;21.90;3.25;;;;;;;;;;5031790;28;20116;-64
2022/12/28 02:01:06;;;;;;;13.48;3.55;;;;;;;;;;5033560;28;20036;-64
2022/12/28 02:03:34;;;;;;;19.42;2.58;;;;;;;;;;5033381;28;20033;-64
2022/12/28 02:06:02;;;;;;;22.23;2.80;;;;;;;;;;5033551;28;20025;-64
2022/12/28 02:08:28;;;;;;;21.45;3.15;;;;;;;;;;5030812;28;20037;-64
2022/12/28 02:10:54;;;;;;;20.13;3.08;;;;;;;;;;5018245;28;20045;-64
2022/12/28 02:13:21;;;;;;;19.70;3.30;;;;;;;;;;5032170;28;20025;-64
2022/12/28 02:15:48;;;;;;;21.85;3.13;;;;;;;;;;5033180;28;20037;-64
2022/12/28 02:18:15;;;;;;;20.15;3.10;;;;;;;;;;5033411;28;20217;-64
2022/12/28 02:20:59;;;;;;;19.55;4.72;;;;;;;;;;5033167;28;20025;-64
2022/12/28 02:23:36;;;;;;;20.75;2.85;;;;;;;;;;5032936;28;20029;-64
2022/12/28 02:26:11;;;;;;;19.77;3.13;;;;;;;;;;5031957;28;20079;-64
2022/12/28 02:28:37;;;;;;;17.80;3.17;;;;;;;;;;5031403;28;20107;-64
2022/12/28 02:31:08;;;;;;;23.85;3.55;;;;;;;;;;5032035;28;20033;-64
2022/12/28 02:33:42;;;;;;;25.95;4.78;;;;;;;;;;5032827;28;20069;-64
2022/12/28 02:36:13;;;;;;;14.75;3.65;;;;;;;;;;5031842;28;20504;-64
2022/12/28 02:38:51;;;;;;;17.08;3.13;;;;;;;;;;5030903;28;20110;-64
2022/12/28 02:41:19;;;;;;;25.02;3.80;;;;;;;;;;5033019;28;20104;-63
2022/12/28 02:43:45;;;;;;;26.00;4.30;;;;;;;;;;5031300;28;20468;-64
2022/12/28 02:52:00;;;;;;;11.77;2.75;;;;;;;;;;5032202;28;20091;-65
2022/12/28 02:57:42;;;;;;;17.58;2.83;;;;;;;;;;5020552;28;20385;-64
2022/12/28 03:00:14;;;;;;;16.23;3.13;;;;;;;;;;5031232;28;20489;-64
2022/12/28 03:02:40;;;;;;;17.10;3.28;;;;;;;;;;5032105;28;20025;-64
2022/12/28 03:08:13;;;;;;;13.13;2.80;;;;;;;;;;5031110;28;20033;-64
2022/12/28 03:08:18;;;;;;;18.30;3.13;;;;;;;;;;5032441;28;20444;-64
2022/12/28 03:10:54;;;;;;;16.90;3.72;;;;;;;;;;5030217;28;20035;-64
2022/12/28 03:13:42;;;;;;;22.92;2.67;;;;;;;;;;5031160;28;20033;-64
2022/12/28 03:16:15;;;;;;;18.58;2.90;;;;;;;;;;5031184;28;20048;-64
2022/12/28 03:32:41;;;;;;;13.95;2.65;;;;;;;;;;5031940;28;20187;-64
2022/12/28 03:35:07;;;;;;;15.40;2.60;;;;;;;;;;5030479;28;20065;-64
2022/12/28 03:37:41;;;;;;;23.73;4.10;;;;;;;;;;5030777;28;20025;-63
2022/12/28 03:40:12;;;;;;;11.23;2.45;;;;;;;;;;5030553;28;20061;-64
2022/12/28 03:45:33;;;;;;;16.02;2.67;;;;;;;;;;5030817;28;20025;-63
2022/12/28 03:48:02;;;;;;;12.68;2.42;;;;;;;;;;5024807;28;20026;-63
2022/12/28 03:50:29;;;;;;;14.40;2.70;;;;;;;;;;5026072;28;20033;-63
2022/12/28 03:52:57;;;;;;;18.65;2.80;;;;;;;;;;5030289;28;20038;-63
2022/12/28 03:55:24;;;;;;;20.77;3.03;;;;;;;;;;5030662;28;20021;-63
2022/12/28 03:57:51;;;;;;;19.80;3.85;;;;;;;;;;5029574;28;20116;-63
2022/12/28 04:00:22;;;;;;;14.20;2.58;;;;;;;;;;5030460;28;20079;-63
2022/12/28 04:02:50;;;;;;;28.88;3.33;;;;;;;;;;5030405;28;20104;-64
2022/12/28 04:05:17;;;;;;;20.45;2.97;;;;;;;;;;5030060;28;20013;-63
2022/12/28 04:07:43;;;;;;;16.35;2.95;;;;;;;;;;5029842;28;20075;-63
2022/12/28 04:10:10;;;;;;;20.00;3.78;;;;;;;;;;5030470;28;20034;-63
2022/12/28 04:12:37;;;;;;;14.93;2.85;;;;;;;;;;5031908;28;20478;-63
2022/12/28 04:15:18;;;;;;;16.38;3.58;;;;;;;;;;5015968;28;20103;-64
2022/12/28 04:17:44;;;;;;;17.95;3.08;;;;;;;;;;5031450;28;20030;-63
2022/12/28 04:20:10;;;;;;;15.38;2.80;;;;;;;;;;5030075;28;20030;-64
2022/12/28 04:22:36;;;;;;;15.45;2.90;;;;;;;;;;5031577;28;20120;-63
2022/12/28 04:25:04;;;;;;;20.35;4.47;;;;;;;;;;5033988;28;20097;-63
2022/12/28 04:27:33;;;;;;;14.20;2.92;;;;;;;;;;5034451;28;20064;-63
2022/12/28 04:30:04;;;;;;;28.70;4.50;;;;;;;;;;5033966;28;20029;-63
2022/12/28 04:32:34;;;;;;;22.83;2.92;;;;;;;;;;5034125;28;20064;-63
2022/12/28 04:35:02;;;;;;;26.52;2.63;;;;;;;;;;5033198;28;20057;-63
2022/12/28 04:37:36;;;;;;;19.30;3.05;;;;;;;;;;5034213;28;20056;-63
2022/12/28 04:40:02;;;;;;;21.90;3.78;;;;;;;;;;5035055;28;20033;-63
2022/12/28 04:42:28;;;;;;;16.75;3.08;;;;;;;;;;5035084;28;20496;-63
2022/12/28 04:44:54;;;;;;;18.67;3.72;;;;;;;;;;5034743;28;20026;-64
2022/12/28 04:47:20;;;;;;;27.02;3.20;;;;;;;;;;5034981;28;20018;-64
2022/12/28 04:49:46;;;;;;;16.52;3.17;;;;;;;;;;5034760;28;20079;-64
2022/12/28 04:52:13;;;;;;;17.00;2.38;;;;;;;;;;5035040;28;20033;-63
2022/12/28 04:54:39;;;;;;;15.85;2.90;;;;;;;;;;5035037;28;20075;-64
2022/12/28 04:57:05;;;;;;;15.02;3.53;;;;;;;;;;5034466;28;20083;-64
2022/12/28 04:59:31;;;;;;;20.73;3.58;;;;;;;;;;5034863;28;20121;-63
2022/12/28 05:01:57;;;;;;;19.60;3.58;;;;;;;;;;5034222;28;20022;-63
2022/12/28 05:04:24;;;;;;;15.05;2.90;;;;;;;;;;5034765;28;20017;-63
2022/12/28 05:06:50;;;;;;;17.70;2.40;;;;;;;;;;5034393;28;20048;-63
2022/12/28 05:09:18;;;;;;;12.98;2.58;;;;;;;;;;5034593;28;20497;-63
2022/12/28 05:11:44;;;;;;;10.63;2.05;;;;;;;;;;5034536;28;20047;-63
2022/12/28 05:14:10;;;;;;;19.08;2.90;;;;;;;;;;5034528;28;20025;-64
2022/12/28 05:16:36;;;;;;;12.05;2.35;;;;;;;;;;5034225;28;20044;-64
2022/12/28 05:19:02;;;;;;;13.90;2.53;;;;;;;;;;5034001;28;20034;-64
2022/12/28 05:21:29;;;;;;;12.23;2.13;;;;;;;;;;5034635;28;20018;-64
2022/12/28 05:23:55;;;;;;;12.00;2.38;;;;;;;;;;5033052;28;20656;-64
2022/12/28 05:26:23;;;;;;;10.02;2.08;;;;;;;;;;5034406;28;20498;-64
2022/12/28 05:28:49;;;;;;;16.33;2.35;;;;;;;;;;5034254;28;20400;-64
2022/12/28 05:31:17;;;;;;;13.73;2.22;;;;;;;;;;5033490;28;20393;-64
2022/12/28 05:33:43;;;;;;;11.40;2.47;;;;;;;;;;5034098;28;20041;-64
2022/12/28 05:36:14;;;;;;;10.88;2.25;;;;;;;;;;5034053;28;20037;-64
2022/12/28 05:38:43;;;;;;;10.43;2.70;;;;;;;;;;5034177;28;20037;-64
2022/12/28 05:41:13;;;;;;;12.60;2.47;;;;;;;;;;5033765;28;20022;-64
2022/12/28 05:43:40;;;;;;;16.25;3.35;;;;;;;;;;5034133;28;20087;-64
2022/12/28 05:46:07;;;;;;;23.63;3.78;;;;;;;;;;5033578;28;20014;-64
2022/12/28 05:48:35;;;;;;;14.82;2.92;;;;;;;;;;5025044;28;20505;-64
2022/12/28 05:51:02;;;;;;;19.90;3.67;;;;;;;;;;5031305;28;20017;-64
2022/12/28 05:53:29;;;;;;;16.58;2.80;;;;;;;;;;5034120;28;20028;-64
2022/12/28 05:55:59;;;;;;;16.70;3.67;;;;;;;;;;5033679;28;20405;-64
2022/12/28 05:58:25;;;;;;;19.88;4.13;;;;;;;;;;5033677;28;20074;-64
2022/12/28 06:00:51;;;;;;;20.13;3.30;;;;;;;;;;5033531;28;20018;-63
2022/12/28 06:03:18;;;;;;;19.08;2.70;;;;;;;;;;5033253;28;20029;-63
2022/12/28 06:05:44;;;;;;;20.75;3.15;;;;;;;;;;5033524;28;20045;-64
2022/12/28 06:08:10;;;;;;;16.63;3.03;;;;;;;;;;5033486;28;20041;-64
2022/12/28 06:10:36;;;;;;;10.82;2.60;;;;;;;;;;5033757;28;20563;-63
2022/12/28 06:13:02;;;;;;;11.95;1.85;;;;;;;;;;5032965;28;20113;-63
2022/12/28 06:15:28;;;;;;;18.80;3.15;;;;;;;;;;5033207;28;20034;-64
2022/12/28 06:17:54;;;;;;;20.38;2.47;;;;;;;;;;5033275;28;20042;-63
2022/12/28 06:20:20;;;;;;;20.00;2.63;;;;;;;;;;5033036;28;20025;-63
2022/12/28 06:22:46;;;;;;;9.63;2.20;;;;;;;;;;5033465;28;20029;-63
2022/12/28 06:25:12;;;;;;;20.77;2.70;;;;;;;;;;5032811;28;20108;-64
2022/12/28 06:27:38;;;;;;;16.17;3.03;;;;;;;;;;5033036;28;20025;-63
2022/12/28 06:30:05;;;;;;;14.48;3.17;;;;;;;;;;5032729;28;20083;-64
2022/12/28 06:32:31;;;;;;;17.20;2.63;;;;;;;;;;5032968;28;20087;-63
2022/12/28 06:34:57;;;;;;;19.55;2.60;;;;;;;;;;5032861;28;20053;-64
2022/12/28 06:37:23;;;;;;;9.23;2.63;;;;;;;;;;5032723;28;20042;-64
2022/12/28 06:39:49;;;;;;;12.30;2.25;;;;;;;;;;5033157;28;20111;-64
2022/12/28 06:42:15;;;;;;;13.98;2.97;;;;;;;;;;5032626;28;20079;-63
2022/12/28 06:44:43;;;;;;;14.75;2.55;;;;;;;;;;5032455;28;20107;-64
2022/12/28 06:47:09;;;;;;;13.45;2.15;;;;;;;;;;5031581;28;20029;-64
2022/12/28 06:49:35;;;;;;;15.75;2.53;;;;;;;;;;5032831;28;20104;-64
2022/12/28 06:52:01;;;;;;;12.50;2.05;;;;;;;;;;5032847;28;20068;-63
2022/12/28 06:54:27;;;;;;;12.32;2.20;;;;;;;;;;5032439;28;20033;-63
2022/12/28 06:56:53;;;;;;;12.77;2.00;;;;;;;;;;5032856;28;20033;-64
2022/12/28 06:59:19;;;;;;;12.50;2.28;;;;;;;;;;5030396;28;20030;-64
2022/12/28 07:01:45;;;;;;;16.90;2.08;;;;;;;;;;5032684;28;20037;-64
2022/12/28 07:04:12;;;;;;;11.55;2.78;;;;;;;;;;5032070;28;20036;-63
2022/12/28 07:06:42;;;;;;;10.07;1.95;;;;;;;;;;5029771;28;20404;-64
2022/12/28 07:09:12;;;;;;;13.88;2.05;;;;;;;;;;5032005;28;20070;-63
2022/12/28 07:11:38;;;;;;;14.27;2.17;;;;;;;;;;5032058;28;20522;-64
2022/12/28 07:14:04;;;;;;;19.80;3.10;;;;;;;;;;5031868;28;20033;-63
2022/12/28 07:16:30;;;;;;;12.98;2.17;;;;;;;;;;5034462;28;20030;-63
2022/12/28 07:18:58;;;;;;;12.32;1.92;;;;;;;;;;5045371;28;20559;-63
2022/12/28 07:21:34;;;;;;;13.43;2.60;;;;;;;;;;5041092;28;20036;-63
2022/12/28 07:24:01;;;;;;;9.93;1.67;;;;;;;;;;5034394;28;20105;-64
2022/12/28 07:26:28;;;;;;;9.30;1.55;;;;;;;;;;5029886;28;20041;-63
2022/12/28 07:28:55;;;;;;;10.20;1.95;;;;;;;;;;5031862;28;20037;-63
2022/12/28 07:31:22;;;;;;;11.32;1.83;;;;;;;;;;5030133;28;20552;-63
2022/12/28 07:33:49;;;;;;;14.38;2.38;;;;;;;;;;5030577;28;20041;-63
2022/12/28 07:36:16;;;;;;;14.27;2.15;;;;;;;;;;5032741;28;20505;-63
2022/12/28 07:38:43;;;;;;;14.93;2.20;;;;;;;;;;5030337;28;20061;-63
2022/12/28 07:41:10;;;;;;;15.07;2.65;;;;;;;;;;5023307;28;20071;-63
2022/12/28 07:43:36;;;;;;;13.05;2.05;;;;;;;;;;5020981;28;20111;-63
2022/12/28 07:46:07;;;;;;;16.40;2.72;;;;;;;;;;5023185;28;20075;-63
2022/12/28 07:48:34;;;;;;;7.05;2.08;;;;;;;;;;5029319;28;20109;-63
2022/12/28 07:51:07;;;;;;;12.48;1.83;;;;;;;;;;5029194;28;20385;-63
2022/12/28 07:53:34;;;;;;;15.32;2.50;;;;;;;;;;5027152;28;20064;-63
2022/12/28 07:56:00;;;;;;;8.43;1.75;;;;;;;;;;5020182;28;20257;-63
2022/12/28 07:58:26;;;;;;;12.10;2.35;;;;;;;;;;5032228;28;20104;-63
2022/12/28 08:00:52;;;;;;;10.27;2.38;;;;;;;;;;5029440;28;20490;-63
2022/12/28 08:03:19;;;;;;;8.70;1.73;;;;;;;;;;5032150;28;20494;-64
2022/12/28 08:05:45;;;;;;;18.52;2.22;;;;;;;;;;5033973;28;20172;-63
2022/12/28 08:08:11;;;;;;;12.57;3.10;;;;;;;;;;5035531;28;20052;-63
2022/12/28 08:10:37;;;;;;;11.07;1.60;;;;;;;;;;5032595;28;20034;-63
2022/12/28 08:13:03;;;;;;;15.32;2.28;;;;;;;;;;5033733;28;20102;-63
2022/12/28 08:15:29;;;;;;;10.18;2.90;;;;;;;;;;5033268;28;20028;-64
2022/12/28 08:17:56;;;;;;;15.02;3.67;;;;;;;;;;5034475;28;20026;-63
2022/12/28 08:20:22;;;;;;;19.73;4.60;;;;;;;;;;5034142;28;20052;-63
2022/12/28 08:22:48;;;;;;;22.90;3.95;;;;;;;;;;5033592;28;20036;-63
2022/12/28 08:25:14;;;;;;;15.10;2.72;;;;;;;;;;5033870;28;20057;-63
2022/12/28 08:27:40;;;;;;;11.80;2.03;;;;;;;;;;5032598;28;20084;-63
2022/12/28 08:30:07;;;;;;;7.13;2.10;;;;;;;;;;5033567;28;20037;-63
2022/12/28 08:32:33;;;;;;;9.18;2.10;;;;;;;;;;5032521;28;20029;-64
2022/12/28 08:34:59;;;;;;;9.10;1.83;;;;;;;;;;5033306;28;20056;-63
2022/12/28 08:37:25;;;;;;;12.30;2.38;;;;;;;;;;5032817;28;20112;-63
2022/12/28 08:39:52;;;;;;;5.63;1.50;;;;;;;;;;5031918;28;20037;-64
2022/12/28 08:42:18;;;;;;;7.15;1.80;;;;;;;;;;5032745;28;20030;-64
2022/12/28 08:44:44;;;;;;;11.23;1.67;;;;;;;;;;5032985;28;20387;-64
2022/12/28 08:47:10;;;;;;;7.72;2.05;;;;;;;;;;5032992;28;20029;-63
2022/12/28 08:49:36;;;;;;;5.75;1.50;;;;;;;;;;5032813;28;20033;-63
2022/12/28 08:52:02;;;;;;;11.73;1.58;;;;;;;;;;5033324;28;20064;-63
2022/12/28 08:54:28;;;;;;;11.32;2.13;;;;;;;;;;5032921;28;20112;-63
2022/12/28 08:56:54;;;;;;;6.70;1.60;;;;;;;;;;5029970;28;20029;-64
2022/12/28 08:59:20;;;;;;;9.65;1.58;;;;;;;;;;5029985;28;20031;-64
2022/12/28 09:01:47;;;;;;;10.23;1.92;;;;;;;;;;5027179;28;20060;-63
2022/12/28 09:04:14;;;;;;;9.02;1.67;;;;;;;;;;5032268;28;20022;-64
2022/12/28 09:06:41;;;;;;;7.35;2.22;;;;;;;;;;5032659;28;20025;-64
2022/12/28 09:09:08;;;;;;;7.03;1.55;;;;;;;;;;5029879;28;20025;-64
2022/12/28 09:11:34;;;;;;;5.18;1.52;;;;;;;;;;5032335;28;20493;-64
2022/12/28 09:14:01;;;;;;;10.90;1.60;;;;;;;;;;5030662;28;20454;-64
2022/12/28 09:16:27;;;;;;;7.43;1.60;;;;;;;;;;5032625;28;20033;-64
2022/12/28 09:18:54;;;;;;;7.45;1.60;;;;;;;;;;5031562;28;20032;-64
2022/12/28 09:21:21;;;;;;;6.35;1.55;;;;;;;;;;5027354;28;20509;-64
2022/12/28 09:23:48;;;;;;;15.15;6.35;;;;;;;;;;5030201;28;20037;-64
2022/12/28 09:26:15;;;;;;;7.20;1.75;;;;;;;;;;5026456;28;20559;-64
2022/12/28 09:28:45;;;;;;;4.45;1.50;;;;;;;;;;5033507;28;20494;-69
2022/12/28 09:31:11;;;;;;;7.78;1.92;;;;;;;;;;5029160;28;20469;-64
2022/12/28 09:36:23;;;;;;;3.90;1.20;;;;;;;;;;5038232;28;20025;-64
2022/12/28 09:38:49;;;;;;;7.43;1.23;;;;;;;;;;5028985;28;20037;-64
2022/12/28 09:41:26;;;;;;;3.53;1.30;;;;;;;;;;5032888;28;20026;-64
2022/12/28 09:44:01;;;;;;;3.80;1.40;;;;;;;;;;5030220;28;20032;-64
2022/12/28 09:46:28;;;;;;;8.45;1.67;;;;;;;;;;5031280;28;20408;-64
2022/12/28 09:48:56;;;;;;;6.75;1.67;;;;;;;;;;5027924;28;20037;-64
2022/12/28 09:51:28;;;;;;;6.20;1.13;;;;;;;;;;5031963;28;20034;-64
2022/12/28 09:53:54;;;;;;;7.68;1.30;;;;;;;;;;5031852;28;20307;-64
2022/12/28 09:56:26;;;;;;;12.25;1.02;;;;;;;;;;5031312;28;20456;-64
2022/12/28 09:58:53;;;;;;;7.43;1.80;;;;;;;;;;5030417;28;20556;-64
2022/12/28 10:01:21;;;;;;;5.65;1.33;;;;;;;;;;5030419;28;20044;-64
2022/12/28 10:03:47;;;;;;;10.75;1.25;;;;;;;;;;5031229;28;20028;-64
2022/12/28 10:06:13;;;;;;;4.03;1.10;;;;;;;;;;5029153;28;20513;-64
2022/12/28 10:08:44;;;;;;;3.97;1.20;;;;;;;;;;5029500;28;20140;-64
2022/12/28 10:11:14;;;;;;;10.30;1.42;;;;;;;;;;5029492;28;20116;-64
2022/12/28 10:13:40;;;;;;;7.85;1.52;;;;;;;;;;5027779;28;20035;-64
2022/12/28 10:16:13;;;;;;;5.38;1.60;;;;;;;;;;5027186;28;20025;-64
2022/12/28 10:18:40;;;;;;;4.82;0.80;;;;;;;;;;5031596;28;20087;-64
2022/12/28 10:21:06;;;;;;;6.13;1.17;;;;;;;;;;5030327;28;20485;-64
2022/12/28 10:23:33;;;;;;;9.07;1.20;;;;;;;;;;5030461;28;20029;-64
2022/12/28 10:26:01;;;;;;;3.00;1.10;;;;;;;;;;5033129;28;20071;-64
2022/12/28 10:28:43;;;;;;;6.22;1.35;;;;;;;;;;5031130;28;20108;-64
2022/12/28 10:31:11;;;;;;;4.95;1.20;;;;;;;;;;5029784;28;20080;-63
2022/12/28 10:33:38;;;;;;;5.50;0.88;;;;;;;;;;5030622;28;20045;-63
2022/12/28 10:36:05;;;;;;;5.45;1.50;;;;;;;;;;5030436;28;20034;-64
2022/12/28 10:38:32;;;;;;;2.53;1.13;;;;;;;;;;5029139;28;20109;-64
2022/12/28 10:41:05;;;;;;;2.67;0.98;;;;;;;;;;5031182;28;20029;-63
2022/12/28 10:43:39;;;;;;;3.15;1.17;;;;;;;;;;5021451;28;20513;-63
2022/12/28 10:46:07;;;;;;;3.63;0.82;;;;;;;;;;5028870;28;20087;-63
2022/12/28 10:48:38;;;;;;;0.70;0.63;;;;;;;;;;5029043;28;20021;-63
2022/12/28 10:51:07;;;;;;;2.05;1.13;;;;;;;;;;5030545;28;20505;-63
2022/12/28 10:53:41;;;;;;;3.80;1.10;;;;;;;;;;5029483;28;20100;-63
2022/12/28 10:56:13;;;;;;;3.30;0.80;;;;;;;;;;5030939;28;20029;-63
2022/12/28 10:58:43;;;;;;;2.13;0.85;;;;;;;;;;5028405;28;20021;-63
2022/12/28 11:01:12;;;;;;;2.70;0.80;;;;;;;;;;5031409;28;20382;-63
2022/12/28 11:03:43;;;;;;;2.35;0.60;;;;;;;;;;5030433;28;20053;-64
2022/12/28 11:06:10;;;;;;;4.88;0.70;;;;;;;;;;5029200;28;20029;-63
2022/12/28 11:08:36;;;;;;;1.58;0.98;;;;;;;;;;5030676;28;20035;-63
2022/12/28 11:11:03;;;;;;;3.13;0.70;;;;;;;;;;5029894;28;20028;-63
2022/12/28 11:13:29;;;;;;;0.50;0.50;;;;;;;;;;5018037;28;20068;-64
2022/12/28 11:15:55;;;;;;;2.28;1.10;;;;;;;;;;5025459;28;20490;-63
2022/12/28 11:18:21;;;;;;;2.10;0.50;;;;;;;;;;5021564;28;20075;-63
2022/12/28 11:20:49;;;;;;;0.60;0.40;;;;;;;;;;5017537;28;20033;-63
2022/12/28 11:23:20;;;;;;;2.03;0.68;;;;;;;;;;5014259;28;20049;-63
2022/12/28 11:25:46;;;;;;;0.45;0.40;;;;;;;;;;5019531;28;20034;-64
2022/12/28 11:28:14;;;;;;;2.00;0.90;;;;;;;;;;5014035;28;20022;-63
2022/12/28 11:30:41;;;;;;;1.92;0.88;;;;;;;;;;5020851;28;20030;-63
2022/12/28 11:33:21;;;;;;;3.85;0.82;;;;;;;;;;5027895;28;20048;-63
2022/12/28 11:35:48;;;;;;;1.23;0.75;;;;;;;;;;5019280;28;20458;-64
2022/12/28 11:38:34;;;;;;;1.83;0.70;;;;;;;;;;5020495;28;20029;-64
2022/12/28 11:41:00;;;;;;;1.98;0.52;;;;;;;;;;5015023;28;20034;-63
2022/12/28 11:43:29;;;;;;;1.23;0.70;;;;;;;;;;5018647;28;20168;-63
2022/12/28 11:45:57;;;;;;;0.70;0.70;;;;;;;;;;5018333;28;20025;-63
2022/12/28 11:48:41;;;;;;;1.13;0.70;;;;;;;;;;5018577;28;20040;-63
2022/12/28 11:51:33;;;;;;;0.73;0.52;;;;;;;;;;5017325;28;20026;-63
2022/12/28 11:54:01;;;;;;;1.53;0.80;;;;;;;;;;5020596;28;20042;-63
2022/12/28 11:56:48;;;;;;;1.38;0.70;;;;;;;;;;5018780;28;20268;-63
2022/12/28 11:59:33;;;;;;;1.88;0.60;;;;;;;;;;5028021;28;20033;-63
2022/12/28 12:01:59;;;;;;;1.50;0.52;;;;;;;;;;5019892;28;20021;-63
2022/12/28 12:04:25;;;;;;;1.58;0.60;;;;;;;;;;5023289;28;20026;-63
2022/12/28 12:06:52;;;;;;;0.50;0.50;;;;;;;;;;5015765;28;20026;-65
2022/12/28 12:09:21;;;;;;;0.98;0.60;;;;;;;;;;5021154;28;20033;-64
2022/12/28 12:11:48;;;;;;;1.17;0.52;;;;;;;;;;5029033;28;20069;-64
2022/12/28 12:14:15;;;;;;;3.53;0.60;;;;;;;;;;5025796;28;20796;-64
2022/12/28 12:16:49;;;;;;;1.20;0.57;;;;;;;;;;5028649;28;20029;-63
2022/12/28 12:19:25;;;;;;;0.85;0.52;;;;;;;;;;5026595;28;20030;-64
2022/12/28 12:22:00;;;;;;;2.40;0.50;;;;;;;;;;5023379;28;20083;-65
2022/12/28 12:24:31;;;;;;;0.70;0.52;;;;;;;;;;5017219;28;20060;-65
2022/12/28 12:27:02;;;;;;;0.80;0.50;;;;;;;;;;5018496;28;20053;-65
2022/12/28 12:29:37;;;;;;;3.10;1.08;;;;;;;;;;5022951;28;20037;-65
2022/12/28 12:32:09;;;;;;;1.75;0.70;;;;;;;;;;5019812;28;20057;-65
2022/12/28 12:34:47;;;;;;;1.67;0.77;;;;;;;;;;5021898;28;20046;-65
2022/12/28 12:37:31;;;;;;;1.40;0.80;;;;;;;;;;5020114;28;20383;-65
2022/12/28 12:39:57;;;;;;;1.30;0.60;;;;;;;;;;5024290;28;20084;-65
2022/12/28 12:42:30;;;;;;;2.22;0.57;;;;;;;;;;5019827;28;20026;-65
2022/12/28 12:45:08;;;;;;;0.75;0.52;;;;;;;;;;5027109;28;20045;-64
2022/12/28 12:47:37;;;;;;;1.50;1.00;;;;;;;;;;5027871;28;20113;-64
2022/12/28 12:50:17;;;;;;;2.97;0.98;;;;;;;;;;5025260;28;20520;-65
2022/12/28 12:52:53;;;;;;;1.13;0.32;;;;;;;;;;5019783;28;20034;-65
2022/12/28 12:55:28;;;;;;;2.38;0.60;;;;;;;;;;5022180;28;20029;-65
2022/12/28 12:58:01;;;;;;;1.30;1.05;;;;;;;;;;5028343;28;20456;-65
2022/12/28 13:00:41;;;;;;;1.73;0.55;;;;;;;;;;5017723;28;20498;-65
2022/12/28 13:03:07;;;;;;;2.10;0.68;;;;;;;;;;5025726;28;20030;-64
2022/12/28 13:05:35;;;;;;;2.92;0.68;;;;;;;;;;5018656;28;20698;-64
2022/12/28 13:08:01;;;;;;;1.13;0.70;;;;;;;;;;5022825;28;20029;-64
2022/12/28 13:10:30;;;;;;;2.42;0.60;;;;;;;;;;5019636;28;20405;-64
2022/12/28 13:12:58;;;;;;;0.50;0.50;;;;;;;;;;5030797;28;20037;-64
2022/12/28 13:15:24;;;;;;;1.55;0.50;;;;;;;;;;5033906;28;20025;-65
2022/12/28 13:18:01;;;;;;;1.27;0.50;;;;;;;;;;5038496;28;20111;-65
2022/12/28 13:20:27;;;;;;;1.98;0.40;;;;;;;;;;5033239;28;20083;-64
2022/12/28 13:22:54;;;;;;;2.75;0.52;;;;;;;;;;5033078;28;20021;-65
2022/12/28 13:25:31;;;;;;;0.57;0.40;;;;;;;;;;5031334;28;20038;-64
2022/12/28 13:27:58;;;;;;;2.65;0.40;;;;;;;;;;5027685;28;20080;-65
2022/12/28 13:30:25;;;;;;;1.98;0.60;;;;;;;;;;5031361;28;20104;-65
2022/12/28 13:32:52;;;;;;;3.63;1.42;;;;;;;;;;5033553;28;20095;-65
2022/12/28 13:35:20;;;;;;;6.95;1.58;;;;;;;;;;5030610;28;20155;-64
2022/12/28 13:38:03;;;;;;;8.90;1.30;;;;;;;;;;5032201;28;20031;-63
2022/12/28 13:40:30;;;;;;;4.70;1.55;;;;;;;;;;5029587;28;20381;-64
2022/12/28 13:42:57;;;;;;;9.43;1.63;;;;;;;;;;5028411;28;20516;-64
2022/12/28 13:45:23;;;;;;;10.57;2.03;;;;;;;;;;5027241;28;20037;-64
2022/12/28 13:47:50;;;;;;;5.75;1.55;;;;;;;;;;5035143;28;20079;-64
2022/12/28 13:50:25;;;;;;;8.75;1.80;;;;;;;;;;5032841;28;20540;-64
2022/12/28 13:53:04;;;;;;;9.50;2.78;;;;;;;;;;5028502;28;20112;-64
2022/12/28 13:55:50;;;;;;;14.93;2.45;;;;;;;;;;5032349;28;20033;-64
2022/12/28 13:58:23;;;;;;;13.57;2.55;;;;;;;;;;5027819;28;20048;-64
2022/12/28 14:00:49;;;;;;;;;;;;;;;;;;5031051;28;20030;-64
2022/12/28 14:03:15;;;;;;;13.60;2.38;;;;;;;;;;5032625;28;19920;-64
2022/12/28 14:05:43;;;;;;;22.60;3.22;;;;;;;;;;5025113;28;20041;-64
2022/12/28 14:08:09;;;;;;;19.02;3.22;;;;;;;;;;5034578;28;20026;-64
2022/12/28 14:10:36;;;;;;;12.75;2.92;;;;;;;;;;5027908;28;20444;-64
2022/12/28 14:13:03;;;;;;;13.20;2.63;;;;;;;;;;5036439;28;20092;-64
2022/12/28 14:15:29;;;;;;;14.63;2.47;;;;;;;;;;5018421;28;20117;-64
2022/12/28 14:17:56;;;;;;;17.58;3.17;;;;;;;;;;5032272;28;20079;-64
2022/12/28 14:20:22;;;;;;;15.98;3.15;;;;;;;;;;5036102;28;20030;-64
2022/12/28 14:22:48;;;;;;;22.35;4.03;;;;;;;;;;5034394;28;20485;-64
2022/12/28 14:25:16;;;;;;;16.50;3.70;;;;;;;;;;5039146;28;20038;-65
2022/12/28 14:27:44;;;;;;;18.40;3.05;;;;;;;;;;5037166;28;20027;-64
2022/12/28 14:30:21;;;;;;;15.32;3.03;;;;;;;;;;5033198;28;20385;-64
2022/12/28 14:32:47;;;;;;;18.70;4.28;;;;;;;;;;5028191;28;20063;-63
2022/12/28 14:35:18;;;;;;;25.20;4.90;;;;;;;;;;5023137;28;20406;-66
2022/12/28 14:37:45;;;;;;;12.13;2.95;;;;;;;;;;5024690;28;20040;-64
2022/12/28 14:40:20;;;;;;;16.50;3.25;;;;;;;;;;5032301;28;20075;-64
2022/12/28 14:42:49;;;;;;;15.15;3.10;;;;;;;;;;5019585;28;20036;-64
2022/12/28 14:45:22;;;;;;;16.77;3.00;;;;;;;;;;5024744;28;20048;-64
2022/12/28 14:47:55;;;;;;;16.77;3.67;;;;;;;;;;5031567;28;20025;-64
2022/12/28 14:50:24;;;;;;;22.92;4.03;;;;;;;;;;5030201;28;20049;-64
2022/12/28 14:52:50;;;;;;;25.50;3.90;;;;;;;;;;5022759;28;20063;-64
2022/12/28 14:55:24;;;;;;;18.42;3.47;;;;;;;;;;5031742;28;20033;-64
2022/12/28 14:57:53;;;;;;;18.67;3.38;;;;;;;;;;5031428;28;20032;-63
2022/12/28 15:00:19;;;;;;;19.50;3.60;;;;;;;;;;5029966;28;20034;-64
2022/12/28 15:02:46;;;;;;;18.05;3.45;;;;;;;;;;5032187;28;20029;-63
2022/12/28 15:05:31;;;;;;;16.15;3.22;;;;;;;;;;5028546;28;20033;-64
2022/12/28 15:07:57;;;;;;;23.65;4.85;;;;;;;;;;5031723;28;20530;-64
2022/12/28 15:10:23;;;;;;;24.45;3.30;;;;;;;;;;5032644;28;20029;-64
2022/12/28 15:12:49;;;;;;;22.95;4.07;;;;;;;;;;5025938;28;20078;-64